createdAt,value
2018-12-03T00:00:42.586Z,9.97
2018-12-03T00:01:50.677Z,9.99
2018-12-03T00:02:58.722Z,9.93
2018-12-03T00:04:06.776Z,9.94
2018-12-03T00:05:14.882Z,10.05
2018-12-03T00:06:22.911Z,9.97
2018-12-03T00:07:30.964Z,10.04
2018-12-03T00:08:39.029Z,10.01
2018-12-03T00:09:47.075Z,10.02
2018-12-03T00:10:55.165Z,9.93
2018-12-03T00:12:03.222Z,10.01
2018-12-03T00:13:11.292Z,9.96
2018-12-03T00:14:19.341Z,10.04
2018-12-03T00:15:27.409Z,10.05
2018-12-03T00:16:35.474Z,10.01
2018-12-03T00:17:43.557Z,10.08
2018-12-03T00:18:51.755Z,9.99
2018-12-03T00:19:59.699Z,10.05
2018-12-03T00:21:07.742Z,10.04
2018-12-03T00:22:15.810Z,9.99
2018-12-03T00:23:23.863Z,10.01
2018-12-03T00:24:31.963Z,9.99
2018-12-03T00:25:40.023Z,10.01
2018-12-03T00:26:48.071Z,9.96
2018-12-03T00:27:56.115Z,9.99
2018-12-03T00:29:04.215Z,10.04
2018-12-03T00:30:12.244Z,9.96
2018-12-03T00:31:20.352Z,9.99
2018-12-03T00:32:28.469Z,10.04
2018-12-03T00:33:36.457Z,9.96
2018-12-03T00:34:44.484Z,10.04
2018-12-03T00:35:52.558Z,10.09
2018-12-03T00:37:00.649Z,10.04
2018-12-03T00:38:08.719Z,10.09
2018-12-03T00:39:16.788Z,10.17
2018-12-03T00:40:24.772Z,10.02
2018-12-03T00:41:32.866Z,10.04
2018-12-03T00:42:40.905Z,10.02
2018-12-03T00:43:48.986Z,10.07
2018-12-03T00:44:57.037Z,10.11
2018-12-03T00:46:05.112Z,10.01
2018-12-03T00:47:13.169Z,9.97
2018-12-03T00:48:21.232Z,10.05
2018-12-03T00:49:29.407Z,9.96
2018-12-03T00:50:37.381Z,10.15
2018-12-03T00:51:45.403Z,9.99
2018-12-03T00:52:53.477Z,10.02
2018-12-03T00:54:01.538Z,9.99
2018-12-03T00:55:09.828Z,9.97
2018-12-03T00:56:17.635Z,9.93
2018-12-03T00:57:25.740Z,10.02
2018-12-03T00:58:33.801Z,10.01
2018-12-03T00:59:41.870Z,10.02
2018-12-03T01:00:49.924Z,10.02
2018-12-03T01:01:57.997Z,9.91
2018-12-03T01:03:06.053Z,10.02
2018-12-03T01:04:14.141Z,10.01
2018-12-03T01:05:22.169Z,10.02
2018-12-03T01:06:30.246Z,10.02
2018-12-03T01:07:38.303Z,10.05
2018-12-03T01:08:46.354Z,10.07
2018-12-03T01:09:54.398Z,10.04
2018-12-03T01:11:02.485Z,10.02
2018-12-03T01:12:10.546Z,9.94
2018-12-03T01:13:18.611Z,10.02
2018-12-03T01:14:26.698Z,9.97
2018-12-03T01:15:34.737Z,9.91
2018-12-03T01:16:42.799Z,9.93
2018-12-03T01:17:50.850Z,9.90
2018-12-03T01:18:58.943Z,10.02
2018-12-03T01:20:06.995Z,9.96
2018-12-03T01:21:15.051Z,10.02
2018-12-03T01:22:23.129Z,10.01
2018-12-03T01:23:31.172Z,10.05
2018-12-03T01:24:39.239Z,9.97
2018-12-03T01:25:47.323Z,10.04
2018-12-03T01:26:55.404Z,10.02
2018-12-03T01:28:03.433Z,10.02
2018-12-03T01:29:11.465Z,9.96
2018-12-03T01:30:19.545Z,9.94
2018-12-03T01:31:27.614Z,10.05
2018-12-03T01:32:35.676Z,10.04
2018-12-03T01:33:43.733Z,10.02
2018-12-03T01:34:51.793Z,10.01
2018-12-03T01:35:59.873Z,10.07
2018-12-03T01:37:07.921Z,10.05
2018-12-03T01:38:16.001Z,9.99
2018-12-03T01:39:24.041Z,10.04
2018-12-03T01:40:32.111Z,10.05
2018-12-03T01:41:40.178Z,10.05
2018-12-03T01:42:48.254Z,10.04
2018-12-03T01:43:56.298Z,10.07
2018-12-03T01:45:04.359Z,10.07
2018-12-03T01:46:12.417Z,10.17
2018-12-03T01:47:20.495Z,10.14
2018-12-03T01:48:28.543Z,10.15
2018-12-03T01:49:36.609Z,10.14
2018-12-03T01:50:44.686Z,10.09
2018-12-03T01:51:52.736Z,10.15
2018-12-03T01:53:00.794Z,10.17
2018-12-03T01:54:08.887Z,10.12
2018-12-03T01:55:16.933Z,10.12
2018-12-03T01:56:24.987Z,10.12
2018-12-03T01:57:33.066Z,10.04
2018-12-03T01:58:41.123Z,10.04
2018-12-03T01:59:49.198Z,10.11
2018-12-03T02:00:57.249Z,10.11
2018-12-03T02:02:05.307Z,10.05
2018-12-03T02:03:13.389Z,10.01
2018-12-03T02:04:21.437Z,9.94
2018-12-03T02:05:29.491Z,10.01
2018-12-03T02:06:37.571Z,9.99
2018-12-03T02:07:45.622Z,9.94
2018-12-03T02:08:53.674Z,10.04
2018-12-03T02:10:01.746Z,9.96
2018-12-03T02:11:09.839Z,9.97
2018-12-03T02:12:17.878Z,9.96
2018-12-03T02:13:25.964Z,9.97
2018-12-03T02:14:33.996Z,9.99
2018-12-03T02:15:42.060Z,9.93
2018-12-03T02:16:50.134Z,10.04
2018-12-03T02:17:58.193Z,9.96
2018-12-03T02:19:06.248Z,9.94
2018-12-03T02:20:14.289Z,9.96
2018-12-03T02:21:22.381Z,10.04
2018-12-03T02:22:30.455Z,10.02
2018-12-03T02:23:38.514Z,9.94
2018-12-03T02:24:46.571Z,10.02
2018-12-03T02:25:54.614Z,9.96
2018-12-03T02:27:02.700Z,10.01
2018-12-03T02:28:10.750Z,10.01
2018-12-03T02:29:18.821Z,9.93
2018-12-03T02:30:26.892Z,10.07
2018-12-03T02:31:34.944Z,10.09
2018-12-03T02:32:43.014Z,10.05
2018-12-03T02:33:51.067Z,10.12
2018-12-03T02:34:59.142Z,10.07
2018-12-03T02:36:07.194Z,10.15
2018-12-03T02:37:15.264Z,10.11
2018-12-03T02:38:23.328Z,10.17
2018-12-03T02:39:31.381Z,10.17
2018-12-03T02:40:39.449Z,10.12
2018-12-03T02:41:47.505Z,10.14
2018-12-03T02:42:55.578Z,10.12
2018-12-03T02:44:03.620Z,10.12
2018-12-03T02:45:11.708Z,10.14
2018-12-03T02:46:19.780Z,10.11
2018-12-03T02:47:27.820Z,10.18
2018-12-03T02:48:35.897Z,10.04
2018-12-03T02:49:43.962Z,10.15
2018-12-03T02:50:52.013Z,10.15
2018-12-03T02:52:00.110Z,10.12
2018-12-03T02:53:08.161Z,10.02
2018-12-03T02:54:16.210Z,10.18
2018-12-03T02:55:24.284Z,10.11
2018-12-03T02:56:32.327Z,10.11
2018-12-03T02:57:40.397Z,10.11
2018-12-03T02:58:48.461Z,10.15
2018-12-03T02:59:56.525Z,10.08
2018-12-03T03:01:04.572Z,10.18
2018-12-03T03:02:12.656Z,10.18
2018-12-03T03:03:20.710Z,10.18
2018-12-03T03:04:28.788Z,10.14
2018-12-03T03:05:36.866Z,10.17
2018-12-03T03:06:44.894Z,10.22
2018-12-03T03:07:52.973Z,10.17
2018-12-03T03:09:01.012Z,10.17
2018-12-03T03:10:09.093Z,10.20
2018-12-03T03:11:17.145Z,10.17
2018-12-03T03:12:25.218Z,10.20
2018-12-03T03:13:33.283Z,10.23
2018-12-03T03:14:41.342Z,10.14
2018-12-03T03:15:49.420Z,10.20
2018-12-03T03:16:57.466Z,10.20
2018-12-03T03:18:05.530Z,10.12
2018-12-03T03:19:13.588Z,10.23
2018-12-03T03:20:21.659Z,10.14
2018-12-03T03:21:29.727Z,10.18
2018-12-03T03:22:37.804Z,10.26
2018-12-03T03:23:45.834Z,10.17
2018-12-03T03:24:53.880Z,10.20
2018-12-03T03:26:01.979Z,10.17
2018-12-03T03:27:10.030Z,10.22
2018-12-03T03:28:18.103Z,10.23
2018-12-03T03:29:26.179Z,10.22
2018-12-03T03:30:34.211Z,10.18
2018-12-03T03:31:42.289Z,10.12
2018-12-03T03:32:50.361Z,10.20
2018-12-03T03:33:58.414Z,10.14
2018-12-03T03:35:06.461Z,10.14
2018-12-03T03:36:14.531Z,10.18
2018-12-03T03:37:22.601Z,10.22
2018-12-03T03:38:30.657Z,10.17
2018-12-03T03:39:38.727Z,10.20
2018-12-03T03:40:46.794Z,10.17
2018-12-03T03:41:54.848Z,10.17
2018-12-03T03:43:02.922Z,10.05
2018-12-03T03:44:11.004Z,10.14
2018-12-03T03:45:19.025Z,10.15
2018-12-03T03:46:27.107Z,10.12
2018-12-03T03:47:35.157Z,10.09
2018-12-03T03:48:43.212Z,10.09
2018-12-03T03:49:51.297Z,10.12
2018-12-03T03:50:59.337Z,10.14
2018-12-03T03:52:07.429Z,10.20
2018-12-03T03:53:15.505Z,10.17
2018-12-03T03:54:25.370Z,10.25
2018-12-03T03:55:31.626Z,10.14
2018-12-03T03:56:39.660Z,10.22
2018-12-03T03:57:47.739Z,10.26
2018-12-03T03:58:55.820Z,10.23
2018-12-03T04:00:03.851Z,10.14
2018-12-03T04:01:11.932Z,10.25
2018-12-03T04:02:19.972Z,10.12
2018-12-03T04:03:28.068Z,10.23
2018-12-03T04:04:36.109Z,10.26
2018-12-03T04:05:44.212Z,10.14
2018-12-03T04:06:52.229Z,10.25
2018-12-03T04:08:00.301Z,10.23
2018-12-03T04:09:08.352Z,10.25
2018-12-03T04:10:16.430Z,10.20
2018-12-03T04:11:24.491Z,10.23
2018-12-03T04:12:32.543Z,10.18
2018-12-03T04:13:40.656Z,10.14
2018-12-03T04:14:48.659Z,10.15
2018-12-03T04:15:56.749Z,10.23
2018-12-03T04:17:04.797Z,10.15
2018-12-03T04:18:12.896Z,10.20
2018-12-03T04:19:20.933Z,10.20
2018-12-03T04:20:28.975Z,10.25
2018-12-03T04:21:37.041Z,10.22
2018-12-03T04:22:45.125Z,10.15
2018-12-03T04:23:53.204Z,10.18
2018-12-03T04:25:01.243Z,10.17
2018-12-03T04:26:09.307Z,10.22
2018-12-03T04:27:17.376Z,10.20
2018-12-03T04:28:25.431Z,10.11
2018-12-03T04:29:33.501Z,10.11
2018-12-03T04:30:41.560Z,10.20
2018-12-03T04:31:49.643Z,10.17
2018-12-03T04:32:57.698Z,10.12
2018-12-03T04:34:05.765Z,10.20
2018-12-03T04:35:13.801Z,10.15
2018-12-03T04:36:21.893Z,10.18
2018-12-03T04:37:29.947Z,10.11
2018-12-03T04:38:38.007Z,10.14
2018-12-03T04:39:46.063Z,10.20
2018-12-03T04:40:54.113Z,10.22
2018-12-03T04:42:02.193Z,10.20
2018-12-03T04:43:10.259Z,10.20
2018-12-03T04:44:18.330Z,10.22
2018-12-03T04:45:26.384Z,10.23
2018-12-03T04:46:34.440Z,10.17
2018-12-03T04:47:42.506Z,10.18
2018-12-03T04:48:50.567Z,10.18
2018-12-03T04:49:58.624Z,10.09
2018-12-03T04:51:06.684Z,10.14
2018-12-03T04:52:14.737Z,10.15
2018-12-03T04:53:23.591Z,10.17
2018-12-03T04:54:30.891Z,10.14
2018-12-03T04:55:38.937Z,10.14
2018-12-03T04:56:46.998Z,10.23
2018-12-03T04:57:55.050Z,10.18
2018-12-03T04:59:03.124Z,10.12
2018-12-03T05:00:11.203Z,10.14
2018-12-03T05:01:19.263Z,10.15
2018-12-03T05:02:27.308Z,10.15
2018-12-03T05:03:35.374Z,10.12
2018-12-03T05:04:43.431Z,10.12
2018-12-03T05:05:51.517Z,10.11
2018-12-03T05:06:59.552Z,10.09
2018-12-03T05:08:07.637Z,10.20
2018-12-03T05:09:15.688Z,10.15
2018-12-03T05:10:23.750Z,10.15
2018-12-03T05:11:31.813Z,10.12
2018-12-03T05:12:39.870Z,10.07
2018-12-03T05:13:47.934Z,10.15
2018-12-03T05:14:55.990Z,10.14
2018-12-03T05:16:04.083Z,10.11
2018-12-03T05:17:12.153Z,10.17
2018-12-03T05:18:20.358Z,10.11
2018-12-03T05:19:28.364Z,10.14
2018-12-03T05:20:36.304Z,10.14
2018-12-03T05:21:44.342Z,10.12
2018-12-03T05:22:52.422Z,10.17
2018-12-03T05:24:04.234Z,10.18
2018-12-03T05:25:08.545Z,10.08
2018-12-03T05:26:16.611Z,10.14
2018-12-03T05:27:24.673Z,10.17
2018-12-03T05:28:32.752Z,10.20
2018-12-03T05:29:40.883Z,10.22
2018-12-03T05:30:48.852Z,10.09
2018-12-03T05:31:56.943Z,10.18
2018-12-03T05:33:04.998Z,10.20
2018-12-03T05:34:13.066Z,10.15
2018-12-03T05:35:21.114Z,10.22
2018-12-03T05:36:29.203Z,10.26
2018-12-03T05:37:37.319Z,10.20
2018-12-03T05:38:45.297Z,10.20
2018-12-03T05:39:53.366Z,10.22
2018-12-03T05:41:01.457Z,10.25
2018-12-03T05:42:09.799Z,10.11
2018-12-03T05:43:17.548Z,10.22
2018-12-03T05:44:25.607Z,10.26
2018-12-03T05:45:33.714Z,10.17
2018-12-03T05:46:41.750Z,10.12
2018-12-03T05:47:50.053Z,10.20
2018-12-03T05:48:57.885Z,10.20
2018-12-03T05:50:05.948Z,10.17
2018-12-03T05:51:13.981Z,10.14
2018-12-03T05:52:22.062Z,10.22
2018-12-03T05:53:30.112Z,10.20
2018-12-03T05:54:38.186Z,10.17
2018-12-03T05:55:46.236Z,10.23
2018-12-03T05:56:54.273Z,10.25
2018-12-03T05:58:02.496Z,10.20
2018-12-03T05:59:10.384Z,10.12
2018-12-03T06:00:18.499Z,10.17
2018-12-03T06:01:26.566Z,10.11
2018-12-03T06:02:34.599Z,10.20
2018-12-03T06:03:42.682Z,10.22
2018-12-03T06:04:50.860Z,10.23
2018-12-03T06:05:58.787Z,10.25
2018-12-03T06:07:06.847Z,10.17
2018-12-03T06:08:14.934Z,10.20
2018-12-03T06:09:23.008Z,10.20
2018-12-03T06:10:31.015Z,10.17
2018-12-03T06:11:39.710Z,10.23
2018-12-03T06:12:47.162Z,10.20
2018-12-03T06:13:55.242Z,10.29
2018-12-03T06:15:03.300Z,10.30
2018-12-03T06:16:11.385Z,10.33
2018-12-03T06:17:19.422Z,10.33
2018-12-03T06:18:27.492Z,10.30
2018-12-03T06:19:35.539Z,10.30
2018-12-03T06:20:43.601Z,10.27
2018-12-03T06:21:51.786Z,10.32
2018-12-03T06:22:59.724Z,10.42
2018-12-03T06:24:07.811Z,10.29
2018-12-03T06:25:15.846Z,10.36
2018-12-03T06:26:23.891Z,10.32
2018-12-03T06:27:32.023Z,10.45
2018-12-03T06:28:40.050Z,10.38
2018-12-03T06:29:48.125Z,10.33
2018-12-03T06:30:56.173Z,10.32
2018-12-03T06:32:04.239Z,10.36
2018-12-03T06:33:12.276Z,10.36
2018-12-03T06:34:20.348Z,10.36
2018-12-03T06:35:28.415Z,10.29
2018-12-03T06:36:36.631Z,10.27
2018-12-03T06:37:44.567Z,10.33
2018-12-03T06:38:52.596Z,10.30
2018-12-03T06:40:00.665Z,10.42
2018-12-03T06:41:08.751Z,10.40
2018-12-03T06:42:16.808Z,10.42
2018-12-03T06:43:25.001Z,10.42
2018-12-03T06:44:32.920Z,10.36
2018-12-03T06:45:41.000Z,10.34
2018-12-03T06:46:49.042Z,10.32
2018-12-03T06:47:57.107Z,10.34
2018-12-03T06:49:05.161Z,10.27
2018-12-03T06:50:13.243Z,10.33
2018-12-03T06:51:21.291Z,10.34
2018-12-03T06:52:29.577Z,10.38
2018-12-03T06:53:37.648Z,10.29
2018-12-03T06:54:45.720Z,10.42
2018-12-03T06:55:53.539Z,10.38
2018-12-03T06:57:01.846Z,10.34
2018-12-03T06:58:09.843Z,10.33
2018-12-03T06:59:17.735Z,10.34
2018-12-03T07:00:25.785Z,10.41
2018-12-03T07:01:33.825Z,10.41
2018-12-03T07:02:42.101Z,10.34
2018-12-03T07:03:50.141Z,10.40
2018-12-03T07:04:58.231Z,10.42
2018-12-03T07:06:06.103Z,10.34
2018-12-03T07:07:14.508Z,10.42
2018-12-03T07:08:22.336Z,10.42
2018-12-03T07:09:30.404Z,10.42
2018-12-03T07:10:38.545Z,10.44
2018-12-03T07:11:46.529Z,10.42
2018-12-03T07:12:54.683Z,10.38
2018-12-03T07:14:02.585Z,10.41
2018-12-03T07:15:10.595Z,10.42
2018-12-03T07:16:18.679Z,10.42
2018-12-03T07:17:26.728Z,10.41
2018-12-03T07:18:34.795Z,10.45
2018-12-03T07:19:42.841Z,10.34
2018-12-03T07:20:50.925Z,10.42
2018-12-03T07:21:59.006Z,10.41
2018-12-03T07:23:07.306Z,10.42
2018-12-03T07:24:15.096Z,10.40
2018-12-03T07:25:23.181Z,10.41
2018-12-03T07:26:31.230Z,10.41
2018-12-03T07:27:39.308Z,10.45
2018-12-03T07:28:47.353Z,10.42
2018-12-03T07:29:55.442Z,10.52
2018-12-03T07:31:03.517Z,10.55
2018-12-03T07:32:11.650Z,10.59
2018-12-03T07:33:19.609Z,10.44
2018-12-03T07:34:27.691Z,10.51
2018-12-03T07:35:35.744Z,10.48
2018-12-03T07:36:43.888Z,10.60
2018-12-03T07:37:51.919Z,10.52
2018-12-03T07:38:59.925Z,10.48
2018-12-03T07:40:08.005Z,10.53
2018-12-03T07:41:16.103Z,10.52
2018-12-03T07:42:24.107Z,10.53
2018-12-03T07:43:32.170Z,10.56
2018-12-03T07:44:40.223Z,10.51
2018-12-03T07:45:48.299Z,10.59
2018-12-03T07:46:56.369Z,10.55
2018-12-03T07:48:04.401Z,10.56
2018-12-03T07:49:12.491Z,10.63
2018-12-03T07:50:20.554Z,10.63
2018-12-03T07:51:28.625Z,10.53
2018-12-03T07:52:36.812Z,10.64
2018-12-03T07:53:44.756Z,10.66
2018-12-03T07:54:52.803Z,10.61
2018-12-03T07:56:00.908Z,10.64
2018-12-03T07:57:08.935Z,10.78
2018-12-03T07:58:17.103Z,10.67
2018-12-03T07:59:25.089Z,10.76
2018-12-03T08:00:33.217Z,10.74
2018-12-03T08:01:41.218Z,10.76
2018-12-03T08:02:49.258Z,10.76
2018-12-03T08:03:57.327Z,10.78
2018-12-03T08:05:05.389Z,10.82
2018-12-03T08:06:13.439Z,10.76
2018-12-03T08:07:21.497Z,10.84
2018-12-03T08:08:29.652Z,10.81
2018-12-03T08:09:37.626Z,10.78
2018-12-03T08:10:45.678Z,10.84
2018-12-03T08:11:53.793Z,10.78
2018-12-03T08:13:01.814Z,10.81
2018-12-03T08:14:09.863Z,10.81
2018-12-03T08:15:17.953Z,10.88
2018-12-03T08:16:26.362Z,10.79
2018-12-03T08:17:34.212Z,10.82
2018-12-03T08:18:42.162Z,10.88
2018-12-03T08:19:50.200Z,10.91
2018-12-03T08:20:58.256Z,10.86
2018-12-03T08:22:06.331Z,10.89
2018-12-03T08:23:14.366Z,10.92
2018-12-03T08:24:22.504Z,10.92
2018-12-03T08:25:30.563Z,10.99
2018-12-03T08:26:38.598Z,10.94
2018-12-03T08:27:46.690Z,11.00
2018-12-03T08:28:54.724Z,10.97
2018-12-03T08:30:02.776Z,11.02
2018-12-03T08:31:10.819Z,11.06
2018-12-03T08:32:18.872Z,11.00
2018-12-03T08:33:26.964Z,11.06
2018-12-03T08:34:35.009Z,11.10
2018-12-03T08:35:43.082Z,11.07
2018-12-03T08:36:51.121Z,11.06
2018-12-03T08:38:03.301Z,11.07
2018-12-03T08:39:07.257Z,11.06
2018-12-03T08:40:15.333Z,11.09
2018-12-03T08:41:23.403Z,11.10
2018-12-03T08:42:31.444Z,11.10
2018-12-03T08:43:39.516Z,11.15
2018-12-03T08:44:47.568Z,11.19
2018-12-03T08:45:55.644Z,11.14
2018-12-03T08:47:03.718Z,11.15
2018-12-03T08:48:11.764Z,11.21
2018-12-03T08:49:19.829Z,11.24
2018-12-03T08:50:27.911Z,11.17
2018-12-03T08:51:35.978Z,11.18
2018-12-03T08:52:43.995Z,11.18
2018-12-03T08:53:52.071Z,11.15
2018-12-03T08:55:00.144Z,11.19
2018-12-03T08:56:08.224Z,11.18
2018-12-03T08:57:16.274Z,11.18
2018-12-03T08:58:24.381Z,11.27
2018-12-03T08:59:32.434Z,11.35
2018-12-03T09:00:40.465Z,11.35
2018-12-03T09:01:48.543Z,11.42
2018-12-03T09:02:56.611Z,11.33
2018-12-03T09:04:04.649Z,11.44
2018-12-03T09:05:12.726Z,11.43
2018-12-03T09:06:20.812Z,11.40
2018-12-03T09:07:28.872Z,11.44
2018-12-03T09:08:36.955Z,11.35
2018-12-03T09:09:44.993Z,11.46
2018-12-03T09:10:53.056Z,11.42
2018-12-03T09:12:01.245Z,11.47
2018-12-03T09:13:09.173Z,11.49
2018-12-03T09:14:17.870Z,11.49
2018-12-03T09:15:25.302Z,11.49
2018-12-03T09:16:33.423Z,11.54
2018-12-03T09:17:41.449Z,11.55
2018-12-03T09:18:49.511Z,11.49
2018-12-03T09:19:58.807Z,11.58
2018-12-03T09:21:05.619Z,11.58
2018-12-03T09:22:13.676Z,11.51
2018-12-03T09:23:21.745Z,11.57
2018-12-03T09:24:29.824Z,11.57
2018-12-03T09:25:37.874Z,11.60
2018-12-03T09:26:45.913Z,11.54
2018-12-03T09:27:53.971Z,11.60
2018-12-03T09:29:02.061Z,11.57
2018-12-03T09:30:10.131Z,11.61
2018-12-03T09:31:18.213Z,11.61
2018-12-03T09:32:26.234Z,11.52
2018-12-03T09:33:34.406Z,11.58
2018-12-03T09:34:42.380Z,11.58
2018-12-03T09:35:50.422Z,11.57
2018-12-03T09:36:58.504Z,11.64
2018-12-03T09:38:06.614Z,11.57
2018-12-03T09:39:14.633Z,11.62
2018-12-03T09:40:22.710Z,11.65
2018-12-03T09:41:30.789Z,11.65
2018-12-03T09:42:38.876Z,11.60
2018-12-03T09:43:46.903Z,11.65
2018-12-03T09:44:55.033Z,11.62
2018-12-03T09:46:03.025Z,11.54
2018-12-03T09:47:11.086Z,11.57
2018-12-03T09:48:19.131Z,11.57
2018-12-03T09:49:27.387Z,11.55
2018-12-03T09:50:35.262Z,11.57
2018-12-03T09:51:43.312Z,11.58
2018-12-03T09:52:51.409Z,11.55
2018-12-03T09:53:59.484Z,11.54
2018-12-03T09:55:07.535Z,11.57
2018-12-03T09:56:15.603Z,11.65
2018-12-03T09:57:23.667Z,11.62
2018-12-03T09:58:31.716Z,11.61
2018-12-03T09:59:39.784Z,11.70
2018-12-03T10:00:47.838Z,11.57
2018-12-03T10:01:55.913Z,11.55
2018-12-03T10:03:03.969Z,11.55
2018-12-03T10:04:12.071Z,11.58
2018-12-03T10:05:20.075Z,11.62
2018-12-03T10:06:28.252Z,11.60
2018-12-03T10:07:36.241Z,11.64
2018-12-03T10:08:44.303Z,11.72
2018-12-03T10:09:52.344Z,11.67
2018-12-03T10:11:00.457Z,11.72
2018-12-03T10:12:08.479Z,11.73
2018-12-03T10:13:16.535Z,11.79
2018-12-03T10:14:24.611Z,11.80
2018-12-03T10:15:32.676Z,11.76
2018-12-03T10:16:40.724Z,11.85
2018-12-03T10:17:48.795Z,11.85
2018-12-03T10:19:00.308Z,11.75
2018-12-03T10:20:04.935Z,11.90
2018-12-03T10:21:13.340Z,11.90
2018-12-03T10:22:21.079Z,11.83
2018-12-03T10:23:29.247Z,11.98
2018-12-03T10:24:37.249Z,11.94
2018-12-03T10:25:45.259Z,11.96
2018-12-03T10:26:53.312Z,11.95
2018-12-03T10:28:01.368Z,11.98
2018-12-03T10:29:09.475Z,11.90
2018-12-03T10:30:17.605Z,11.85
2018-12-03T10:31:25.533Z,11.94
2018-12-03T10:32:33.645Z,11.94
2018-12-03T10:33:41.675Z,11.94
2018-12-03T10:34:49.745Z,11.85
2018-12-03T10:35:58.655Z,11.98
2018-12-03T10:37:05.876Z,11.96
2018-12-03T10:38:14.521Z,11.95
2018-12-03T10:39:22.012Z,12.02
2018-12-03T10:40:30.087Z,11.91
2018-12-03T10:41:38.142Z,12.02
2018-12-03T10:42:46.188Z,11.90
2018-12-03T10:43:54.880Z,11.96
2018-12-03T10:45:02.303Z,11.96
2018-12-03T10:46:10.406Z,11.95
2018-12-03T10:47:18.451Z,11.88
2018-12-03T10:48:26.533Z,11.94
2018-12-03T10:49:34.578Z,11.85
2018-12-03T10:50:42.639Z,11.90
2018-12-03T10:51:50.722Z,11.90
2018-12-03T10:52:58.809Z,11.86
2018-12-03T10:54:06.863Z,11.82
2018-12-03T10:55:15.481Z,11.85
2018-12-03T10:56:22.961Z,11.86
2018-12-03T10:57:31.031Z,11.85
2018-12-03T10:58:39.097Z,11.88
2018-12-03T10:59:47.181Z,11.85
2018-12-03T11:00:55.251Z,11.94
2018-12-03T11:02:03.288Z,11.96
2018-12-03T11:03:11.328Z,11.99
2018-12-03T11:04:19.430Z,12.02
2018-12-03T11:05:27.483Z,12.09
2018-12-03T11:06:42.557Z,12.10
2018-12-03T11:07:43.611Z,12.14
2018-12-03T11:08:51.684Z,12.13
2018-12-03T11:10:00.009Z,12.13
2018-12-03T11:11:08.263Z,12.20
2018-12-03T11:12:15.856Z,12.16
2018-12-03T11:13:23.907Z,12.27
2018-12-03T11:14:31.996Z,12.19
2018-12-03T11:15:40.052Z,12.14
2018-12-03T11:16:48.457Z,12.19
2018-12-03T11:17:56.330Z,12.10
2018-12-03T11:19:04.236Z,12.20
2018-12-03T11:20:12.357Z,12.31
2018-12-03T11:21:24.322Z,12.27
2018-12-03T11:22:28.644Z,12.27
2018-12-03T11:23:37.116Z,12.17
2018-12-03T11:24:44.764Z,12.12
2018-12-03T11:25:52.897Z,12.13
2018-12-03T11:27:00.921Z,12.10
2018-12-03T11:28:10.517Z,12.09
2018-12-03T11:29:17.299Z,12.07
2018-12-03T11:30:24.895Z,11.99
2018-12-03T11:31:32.966Z,12.01
2018-12-03T11:32:41.030Z,11.95
2018-12-03T11:33:49.087Z,12.05
2018-12-03T11:34:57.133Z,12.12
2018-12-03T11:36:05.560Z,12.13
2018-12-03T11:37:13.266Z,12.12
2018-12-03T11:38:21.561Z,12.09
2018-12-03T11:39:29.418Z,12.12
2018-12-03T11:40:37.773Z,12.19
2018-12-03T11:41:45.541Z,12.09
2018-12-03T11:42:54.051Z,12.07
2018-12-03T11:44:02.300Z,12.16
2018-12-03T11:45:09.809Z,12.21
2018-12-03T11:46:17.797Z,12.14
2018-12-03T11:47:25.862Z,12.20
2018-12-03T11:48:33.915Z,12.23
2018-12-03T11:49:42.453Z,12.23
2018-12-03T11:50:50.368Z,12.28
2018-12-03T11:51:58.117Z,12.13
2018-12-03T11:53:06.237Z,12.17
2018-12-03T11:54:14.660Z,12.16
2018-12-03T11:55:22.312Z,12.17
2018-12-03T11:56:30.818Z,12.17
2018-12-03T11:57:38.756Z,12.23
2018-12-03T11:58:46.507Z,12.17
2018-12-03T11:59:54.586Z,12.17
2018-12-03T12:01:03.065Z,12.14
2018-12-03T12:02:11.000Z,12.04
2018-12-03T12:03:19.053Z,12.02
2018-12-03T12:04:27.190Z,12.02
2018-12-03T12:05:34.914Z,11.95
2018-12-03T12:06:42.977Z,11.94
2018-12-03T12:07:51.292Z,11.85
2018-12-03T12:08:59.167Z,11.88
2018-12-03T12:10:07.543Z,11.75
2018-12-03T12:11:15.833Z,11.72
2018-12-03T12:12:23.671Z,11.65
2018-12-03T12:13:31.332Z,11.67
2018-12-03T12:14:39.402Z,11.65
2018-12-03T12:15:47.520Z,11.62
2018-12-03T12:16:55.539Z,11.62
2018-12-03T12:18:03.576Z,11.65
2018-12-03T12:19:12.008Z,11.76
2018-12-03T12:20:19.725Z,11.69
2018-12-03T12:21:28.195Z,11.70
2018-12-03T12:22:36.117Z,11.70
2018-12-03T12:23:43.910Z,11.72
2018-12-03T12:24:51.974Z,11.69
2018-12-03T12:26:00.052Z,11.69
2018-12-03T12:27:08.095Z,11.67
2018-12-03T12:28:17.962Z,11.69
2018-12-03T12:29:24.213Z,11.70
2018-12-03T12:30:32.484Z,11.73
2018-12-03T12:31:40.791Z,11.73
2018-12-03T12:32:48.916Z,11.76
2018-12-03T12:33:56.818Z,11.79
2018-12-03T12:35:04.534Z,11.85
2018-12-03T12:36:12.832Z,11.90
2018-12-03T12:37:20.664Z,11.90
2018-12-03T12:38:29.097Z,11.90
2018-12-03T12:39:37.140Z,11.95
2018-12-03T12:40:44.992Z,11.95
2018-12-03T12:41:52.988Z,12.01
2018-12-03T12:43:00.976Z,12.02
2018-12-03T12:44:09.056Z,12.09
2018-12-03T12:45:17.433Z,12.10
2018-12-03T12:46:25.197Z,12.10
2018-12-03T12:47:33.579Z,12.09
2018-12-03T12:48:41.728Z,12.10
2018-12-03T12:49:49.657Z,12.07
2018-12-03T12:50:57.439Z,12.05
2018-12-03T12:52:05.524Z,12.09
2018-12-03T12:53:13.775Z,12.04
2018-12-03T12:54:21.630Z,12.02
2018-12-03T12:55:30.044Z,12.02
2018-12-03T12:56:37.760Z,12.09
2018-12-03T12:57:45.862Z,12.02
2018-12-03T12:58:54.035Z,12.01
2018-12-03T13:00:01.937Z,12.05
2018-12-03T13:01:10.281Z,12.01
2018-12-03T13:02:18.327Z,11.91
2018-12-03T13:03:26.136Z,11.96
2018-12-03T13:04:34.467Z,11.99
2018-12-03T13:05:42.630Z,11.95
2018-12-03T13:06:50.776Z,11.96
2018-12-03T13:07:58.821Z,12.04
2018-12-03T13:09:06.788Z,11.99
2018-12-03T13:10:14.555Z,11.95
2018-12-03T13:11:22.929Z,12.02
2018-12-03T13:12:30.653Z,12.12
2018-12-03T13:13:38.828Z,12.10
2018-12-03T13:14:46.969Z,12.07
2018-12-03T13:15:54.826Z,12.09
2018-12-03T13:17:03.228Z,12.10
2018-12-03T13:18:11.372Z,12.10
2018-12-03T13:19:19.029Z,12.21
2018-12-03T13:20:27.419Z,12.19
2018-12-03T13:21:35.161Z,12.28
2018-12-03T13:22:43.933Z,12.31
2018-12-03T13:23:51.652Z,12.41
2018-12-03T13:24:59.360Z,12.41
2018-12-03T13:26:07.776Z,12.57
2018-12-03T13:27:15.475Z,12.57
2018-12-03T13:28:23.516Z,12.50
2018-12-03T13:29:31.631Z,12.42
2018-12-03T13:30:39.651Z,12.54
2018-12-03T13:31:47.731Z,12.50
2018-12-03T13:32:56.138Z,12.45
2018-12-03T13:34:03.879Z,12.39
2018-12-03T13:35:11.931Z,12.45
2018-12-03T13:36:20.563Z,12.46
2018-12-03T13:37:28.296Z,12.41
2018-12-03T13:38:36.153Z,12.47
2018-12-03T13:39:44.387Z,12.53
2018-12-03T13:40:52.274Z,12.53
2018-12-03T13:42:00.313Z,12.35
2018-12-03T13:43:08.746Z,12.42
2018-12-03T13:44:16.743Z,12.39
2018-12-03T13:45:24.508Z,12.28
2018-12-03T13:46:32.994Z,12.29
2018-12-03T13:47:40.658Z,12.28
2018-12-03T13:48:48.721Z,12.29
2018-12-03T13:49:56.876Z,12.27
2018-12-03T13:51:05.138Z,12.27
2018-12-03T13:52:13.205Z,12.32
2018-12-03T13:53:20.997Z,12.24
2018-12-03T13:54:29.331Z,12.27
2018-12-03T13:55:37.414Z,12.10
2018-12-03T13:56:45.195Z,12.14
2018-12-03T13:57:53.232Z,12.14
2018-12-03T13:59:01.381Z,12.16
2018-12-03T14:00:09.679Z,12.14
2018-12-03T14:01:18.512Z,12.07
2018-12-03T14:02:25.866Z,12.13
2018-12-03T14:03:33.529Z,12.04
2018-12-03T14:04:41.875Z,12.05
2018-12-03T14:05:49.663Z,11.99
2018-12-03T14:06:57.812Z,11.99
2018-12-03T14:08:06.083Z,11.96
2018-12-03T14:09:13.850Z,11.90
2018-12-03T14:10:22.312Z,11.91
2018-12-03T14:11:30.003Z,11.98
2018-12-03T14:12:38.064Z,11.99
2018-12-03T14:13:46.136Z,11.95
2018-12-03T14:14:54.541Z,11.88
2018-12-03T14:16:02.253Z,11.96
2018-12-03T14:17:10.314Z,11.86
2018-12-03T14:18:18.387Z,11.98
2018-12-03T14:19:26.439Z,11.98
2018-12-03T14:20:34.817Z,11.88
2018-12-03T14:21:42.935Z,11.85
2018-12-03T14:22:50.652Z,11.80
2018-12-03T14:23:58.685Z,11.85
2018-12-03T14:25:06.782Z,11.80
2018-12-03T14:26:14.846Z,11.82
2018-12-03T14:27:23.153Z,11.82
2018-12-03T14:28:30.956Z,11.86
2018-12-03T14:29:39.454Z,11.76
2018-12-03T14:30:47.075Z,11.76
2018-12-03T14:31:55.482Z,11.70
2018-12-03T14:33:03.213Z,11.78
2018-12-03T14:34:11.261Z,11.78
2018-12-03T14:35:19.724Z,11.72
2018-12-03T14:36:27.415Z,11.69
2018-12-03T14:37:35.472Z,11.64
2018-12-03T14:38:43.529Z,11.67